createdAt,value
2017-09-02T00:00:17.725Z,23.00
2017-09-02T00:02:46.203Z,23.00
2017-09-02T00:05:14.559Z,23.00
2017-09-02T00:07:42.950Z,23.00
2017-09-02T00:10:11.389Z,23.00
2017-09-02T00:12:39.907Z,23.00
2017-09-02T00:15:08.294Z,23.00
2017-09-02T00:17:36.712Z,23.00
2017-09-02T00:20:05.359Z,23.00
2017-09-02T00:22:33.942Z,23.00
2017-09-02T00:25:02.524Z,23.00
2017-09-02T00:27:30.911Z,23.00
2017-09-02T00:29:59.379Z,23.00
2017-09-02T00:32:27.763Z,23.00
2017-09-02T00:34:56.135Z,23.00
2017-09-02T00:37:24.607Z,23.00
2017-09-02T00:39:53.097Z,23.00
2017-09-02T00:42:21.481Z,23.00
2017-09-02T00:44:49.850Z,23.00
2017-09-02T00:47:18.330Z,23.00
2017-09-02T00:49:46.878Z,23.00
2017-09-02T00:52:15.297Z,23.00
2017-09-02T00:54:43.667Z,23.00
2017-09-02T00:57:12.145Z,23.00
2017-09-02T00:59:40.524Z,23.00
2017-09-02T01:02:09.023Z,23.00
2017-09-02T01:04:37.486Z,23.00
2017-09-02T01:07:05.907Z,23.00
2017-09-02T01:09:34.278Z,23.00
2017-09-02T01:12:02.694Z,22.90
2017-09-02T01:14:31.179Z,22.90
2017-09-02T01:16:59.588Z,22.90
2017-09-02T01:19:28.005Z,22.90
2017-09-02T01:21:56.680Z,22.90
2017-09-02T01:24:25.041Z,22.90
2017-09-02T01:26:53.534Z,22.90
2017-09-02T01:29:21.992Z,22.90
2017-09-02T01:31:50.380Z,22.90
2017-09-02T01:34:18.782Z,22.90
2017-09-02T01:36:47.214Z,22.90
2017-09-02T01:39:15.800Z,22.90
2017-09-02T01:41:44.275Z,22.90
2017-09-02T01:44:14.168Z,22.90
2017-09-02T01:46:42.552Z,22.90
2017-09-02T01:49:10.943Z,22.90
2017-09-02T01:51:39.299Z,22.90
2017-09-02T01:54:07.688Z,22.90
2017-09-02T01:56:36.124Z,22.90
2017-09-02T01:59:04.508Z,22.90
2017-09-02T02:01:32.937Z,22.90
2017-09-02T02:04:01.516Z,22.90
2017-09-02T02:06:29.886Z,22.90
2017-09-02T02:08:58.378Z,22.90
2017-09-02T02:11:26.821Z,22.90
2017-09-02T02:13:55.204Z,22.90
2017-09-02T02:16:23.559Z,22.90
2017-09-02T02:18:51.949Z,22.90
2017-09-02T02:21:20.351Z,22.90
2017-09-02T02:23:48.752Z,22.90
2017-09-02T02:26:17.108Z,22.90
2017-09-02T02:28:45.487Z,22.90
2017-09-02T02:31:14.005Z,22.90
2017-09-02T02:33:42.437Z,22.90
2017-09-02T02:36:10.827Z,22.90
2017-09-02T02:38:39.204Z,22.90
2017-09-02T02:41:07.578Z,22.90
2017-09-02T02:43:36.073Z,22.90
2017-09-02T02:46:05.032Z,22.90
2017-09-02T02:48:33.436Z,22.90
2017-09-02T02:51:01.792Z,22.90
2017-09-02T02:53:30.204Z,22.90
2017-09-02T02:55:58.675Z,22.90
2017-09-02T02:58:27.056Z,22.80
2017-09-02T03:00:55.419Z,22.80
2017-09-02T03:03:23.788Z,22.90
2017-09-02T03:05:52.148Z,22.80
2017-09-02T03:08:20.523Z,22.80
2017-09-02T03:10:48.956Z,22.80
2017-09-02T03:13:17.350Z,22.80
2017-09-02T03:15:45.799Z,22.80
2017-09-02T03:18:14.220Z,22.80
2017-09-02T03:20:42.588Z,22.80
2017-09-02T03:23:11.017Z,22.80
2017-09-02T03:25:39.395Z,22.80
2017-09-02T03:28:07.788Z,22.80
2017-09-02T03:30:36.168Z,22.80
2017-09-02T03:33:04.566Z,22.80
2017-09-02T03:35:32.954Z,22.80
2017-09-02T03:38:01.441Z,22.80
2017-09-02T03:40:29.880Z,22.80
2017-09-02T03:42:58.337Z,22.80
2017-09-02T03:45:26.924Z,22.80
2017-09-02T03:47:55.427Z,22.80
2017-09-02T03:50:23.803Z,22.80
2017-09-02T03:52:52.178Z,22.80
2017-09-02T03:55:20.535Z,22.70
2017-09-02T03:57:48.929Z,22.70
2017-09-02T04:00:18.346Z,22.70
2017-09-02T04:02:46.817Z,22.80
2017-09-02T04:05:15.185Z,22.70
2017-09-02T04:07:43.564Z,22.80
2017-09-02T04:10:11.949Z,22.70
2017-09-02T04:12:40.834Z,22.70
2017-09-02T04:15:09.220Z,22.70
2017-09-02T04:17:37.618Z,22.70
2017-09-02T04:20:05.976Z,22.70
2017-09-02T04:22:34.351Z,22.70
2017-09-02T04:25:02.737Z,22.70
2017-09-02T04:27:31.134Z,22.70
2017-09-02T04:29:59.501Z,22.70
2017-09-02T04:32:27.888Z,22.70
2017-09-02T04:34:56.282Z,22.70
2017-09-02T04:37:24.778Z,22.70
2017-09-02T04:39:53.450Z,22.70
2017-09-02T04:42:21.987Z,22.70
2017-09-02T04:44:50.418Z,22.70
2017-09-02T04:47:18.782Z,22.70
2017-09-02T04:49:47.221Z,22.80
2017-09-02T04:52:15.700Z,22.70
2017-09-02T04:54:44.106Z,22.70
2017-09-02T04:57:12.482Z,22.80
2017-09-02T04:59:40.996Z,22.70
2017-09-02T05:02:09.401Z,22.70
2017-09-02T05:04:37.898Z,22.70
2017-09-02T05:07:06.342Z,22.80
2017-09-02T05:09:34.737Z,22.80
2017-09-02T05:12:03.145Z,22.80
2017-09-02T05:14:31.550Z,22.70
2017-09-02T05:17:00.094Z,22.70
2017-09-02T05:19:28.574Z,22.80
2017-09-02T05:21:56.952Z,22.70
2017-09-02T05:24:25.336Z,22.70
2017-09-02T05:26:53.721Z,22.70
2017-09-02T05:29:22.118Z,22.70
2017-09-02T05:31:50.561Z,22.70
2017-09-02T05:34:18.979Z,22.70
2017-09-02T05:36:47.361Z,22.70
2017-09-02T05:39:15.754Z,22.70
2017-09-02T05:41:44.981Z,22.70
2017-09-02T05:44:13.349Z,22.70
2017-09-02T05:46:41.726Z,22.80
2017-09-02T05:49:10.123Z,22.80
2017-09-02T05:51:38.529Z,22.70
2017-09-02T05:54:07.034Z,22.80
2017-09-02T05:56:35.492Z,22.80
2017-09-02T05:59:03.891Z,22.80
2017-09-02T06:01:32.260Z,22.80
2017-09-02T06:04:00.735Z,22.80
2017-09-02T06:06:29.179Z,22.80
2017-09-02T06:08:57.559Z,22.70
2017-09-02T06:11:25.935Z,22.80
2017-09-02T06:13:54.402Z,22.80
2017-09-02T06:16:22.813Z,22.80
2017-09-02T06:18:51.309Z,22.80
2017-09-02T06:21:19.704Z,22.80
2017-09-02T06:23:48.259Z,22.70
2017-09-02T06:26:16.648Z,22.60
2017-09-02T06:28:45.878Z,22.50
2017-09-02T06:31:14.321Z,22.40
2017-09-02T06:33:42.847Z,22.40
2017-09-02T06:36:11.244Z,22.50
2017-09-02T06:38:40.090Z,22.40
2017-09-02T06:41:08.489Z,22.50
2017-09-02T06:43:36.876Z,22.40
2017-09-02T06:46:05.374Z,22.30
2017-09-02T06:48:33.851Z,22.40
2017-09-02T06:51:02.274Z,22.40
2017-09-02T06:53:30.662Z,22.40
2017-09-02T06:55:59.063Z,22.50
2017-09-02T06:58:27.465Z,23.00
2017-09-02T07:00:55.943Z,23.50
2017-09-02T07:03:24.348Z,23.70
2017-09-02T07:05:52.755Z,23.80
2017-09-02T07:08:21.440Z,23.70
2017-09-02T07:10:50.615Z,24.20
2017-09-02T07:13:19.005Z,24.10
2017-09-02T07:15:46.770Z,24.10
2017-09-02T09:51:31.145Z,23.00
2017-09-02T09:53:59.548Z,24.40
2017-09-02T09:56:28.029Z,24.70
2017-09-02T09:58:56.404Z,26.10
2017-09-02T10:01:24.801Z,25.90
2017-09-02T10:03:53.240Z,23.20
2017-09-02T10:06:21.672Z,24.30
2017-09-02T10:08:50.097Z,25.70
2017-09-02T10:11:18.521Z,25.50
2017-09-02T10:13:46.930Z,24.90
2017-09-02T10:16:15.368Z,22.90
2017-09-02T10:18:43.871Z,21.10
2017-09-02T10:21:12.378Z,23.10
2017-09-02T10:23:40.801Z,23.80
2017-09-02T10:26:09.247Z,24.40
2017-09-02T10:28:37.705Z,25.20
2017-09-02T10:31:06.231Z,24.50
2017-09-02T10:33:34.635Z,24.40
2017-09-02T10:36:03.036Z,22.60
2017-09-02T10:38:31.429Z,23.40
2017-09-02T10:40:59.886Z,25.50
2017-09-02T10:43:28.292Z,26.40
2017-09-02T10:45:56.786Z,25.30
2017-09-02T10:48:25.184Z,24.90
2017-09-02T10:50:53.626Z,25.00
2017-09-02T10:53:22.020Z,23.40
2017-09-02T10:55:50.497Z,25.30
2017-09-02T10:58:18.919Z,24.70
2017-09-02T11:00:47.340Z,22.30
2017-09-02T11:03:16.669Z,22.50
2017-09-02T11:05:45.079Z,24.30
2017-09-02T11:08:13.539Z,23.30
2017-09-02T11:10:42.125Z,23.30
2017-09-02T11:13:10.722Z,23.60
2017-09-02T11:15:39.143Z,23.60
2017-09-02T11:18:07.526Z,23.30
2017-09-02T11:20:35.946Z,23.50
2017-09-02T11:23:04.454Z,23.50
2017-09-02T11:25:32.861Z,23.80
2017-09-02T11:28:01.261Z,21.90
2017-09-02T11:30:29.803Z,21.20
2017-09-02T11:32:58.243Z,21.00
2017-09-02T11:35:26.677Z,21.80
2017-09-02T11:37:56.093Z,21.50
2017-09-02T11:40:24.507Z,22.20
2017-09-02T11:42:52.873Z,22.70
2017-09-02T11:45:21.327Z,22.60
2017-09-02T11:47:49.827Z,22.60
2017-09-02T11:50:18.240Z,22.30
2017-09-02T11:52:46.623Z,22.20
2017-09-02T11:55:15.009Z,22.50
2017-09-02T11:57:43.399Z,22.10
2017-09-02T12:00:11.821Z,22.20
2017-09-02T12:02:40.315Z,22.50
2017-09-02T12:05:08.872Z,22.90
2017-09-02T12:07:37.287Z,22.90
2017-09-02T12:10:06.757Z,22.90
2017-09-02T12:12:37.042Z,22.70
2017-09-02T12:15:12.117Z,23.10
2017-09-02T12:17:41.555Z,22.20
2017-09-02T12:20:12.482Z,22.30
2017-09-02T12:22:41.945Z,22.40
2017-09-02T12:25:10.395Z,22.30
2017-09-02T12:27:38.904Z,21.80
2017-09-02T12:30:07.399Z,21.00
2017-09-02T12:32:36.070Z,21.60
2017-09-02T12:35:04.682Z,22.40
2017-09-02T12:37:34.306Z,22.60
2017-09-02T12:40:12.811Z,21.60
2017-09-02T12:42:41.768Z,20.80
2017-09-02T12:45:10.249Z,20.50
2017-09-02T12:47:41.195Z,20.20
2017-09-02T12:50:10.055Z,19.90
2017-09-02T12:52:41.203Z,20.20
2017-09-02T12:55:09.761Z,20.90
2017-09-02T12:57:38.379Z,21.30
2017-09-02T13:00:06.841Z,21.60
2017-09-02T13:02:35.250Z,21.60
2017-09-02T13:05:03.728Z,21.90
2017-09-02T13:07:32.252Z,22.00
2017-09-02T13:10:00.661Z,22.10
2017-09-02T13:12:29.065Z,21.50
2017-09-02T13:14:57.507Z,21.70
2017-09-02T13:17:25.939Z,21.80
2017-09-02T13:19:54.374Z,21.80
2017-09-02T13:22:22.777Z,21.80
2017-09-02T13:24:51.190Z,21.60
2017-09-02T13:27:19.666Z,21.70
2017-09-02T13:29:48.084Z,21.90
2017-09-02T13:32:16.609Z,21.80
2017-09-02T13:34:45.185Z,21.80
2017-09-02T13:37:13.595Z,21.00
2017-09-02T13:39:41.981Z,21.20
2017-09-02T13:42:10.459Z,21.40
2017-09-02T13:44:38.834Z,21.30
2017-09-02T13:47:07.334Z,21.20
2017-09-02T13:49:35.765Z,21.20
2017-09-02T13:52:04.182Z,21.70
2017-09-02T13:54:32.582Z,21.40
2017-09-02T13:57:01.026Z,21.50
2017-09-02T13:59:29.461Z,21.20
2017-09-02T14:01:58.321Z,21.20
2017-09-02T14:04:26.781Z,21.30
2017-09-02T14:06:55.172Z,21.40
2017-09-02T14:09:23.706Z,21.40
2017-09-02T14:11:52.194Z,21.60
2017-09-02T14:14:20.751Z,21.40
2017-09-02T14:16:49.147Z,21.30
2017-09-02T14:19:17.546Z,21.20
2017-09-02T14:21:45.934Z,21.30
2017-09-02T14:24:14.344Z,21.50
2017-09-02T14:26:42.735Z,21.30
2017-09-02T14:29:11.171Z,21.30
2017-09-02T14:31:39.559Z,21.40
2017-09-02T14:34:07.966Z,21.30
2017-09-02T14:36:36.548Z,20.90
2017-09-02T14:39:05.185Z,20.50
2017-09-02T14:41:33.575Z,20.50
2017-09-02T14:44:02.022Z,20.50
2017-09-02T14:46:30.425Z,20.70
2017-09-02T14:48:58.900Z,21.10
2017-09-02T14:51:27.380Z,21.00
2017-09-02T14:53:55.891Z,21.30
2017-09-02T14:56:24.275Z,21.40
2017-09-02T14:58:52.825Z,21.50
2017-09-02T15:01:21.239Z,21.30
2017-09-02T15:03:49.709Z,21.50
2017-09-02T15:06:18.159Z,21.40
2017-09-02T15:08:46.600Z,21.20
2017-09-02T15:11:14.991Z,21.10
2017-09-02T15:13:43.452Z,21.10
2017-09-02T15:16:11.941Z,20.80
2017-09-02T15:18:40.341Z,20.70
2017-09-02T15:21:08.731Z,20.40
2017-09-02T15:23:37.136Z,20.30
2017-09-02T15:26:05.568Z,20.00
2017-09-02T15:28:34.039Z,20.00
2017-09-02T15:31:02.522Z,19.90
2017-09-02T15:33:30.939Z,20.00
2017-09-02T15:35:59.335Z,20.00
2017-09-02T15:38:27.762Z,19.90
2017-09-02T15:40:56.163Z,19.50
2017-09-02T15:43:24.572Z,19.40
2017-09-02T15:45:53.007Z,19.80
2017-09-02T15:48:21.523Z,19.80
2017-09-02T15:50:49.968Z,20.00
2017-09-02T15:53:18.876Z,19.90
2017-09-02T15:55:47.279Z,19.80
2017-09-02T15:58:15.730Z,20.00
2017-09-02T16:00:44.135Z,19.80
2017-09-02T16:03:12.549Z,19.40
2017-09-02T16:05:40.982Z,19.50
2017-09-02T16:08:09.460Z,19.70
2017-09-02T16:10:38.011Z,19.60
2017-09-02T16:13:06.418Z,19.60
2017-09-02T16:15:35.200Z,19.50
2017-09-02T16:18:03.951Z,19.60
2017-09-02T16:20:32.427Z,19.50
2017-09-02T16:23:00.854Z,19.30
2017-09-02T16:25:29.245Z,19.10
2017-09-02T16:27:57.645Z,19.10
2017-09-02T16:30:26.040Z,18.90
2017-09-02T16:32:54.513Z,18.80
2017-09-02T16:35:23.054Z,18.70
2017-09-02T16:37:51.466Z,18.70
2017-09-02T16:40:19.956Z,18.60
2017-09-02T16:42:48.396Z,18.50
2017-09-02T16:45:16.863Z,18.40
2017-09-02T16:47:45.328Z,18.20
2017-09-02T16:50:13.730Z,18.00
2017-09-02T16:52:43.081Z,17.90
2017-09-02T16:55:11.452Z,18.00
2017-09-02T16:57:40.015Z,17.90
2017-09-02T17:00:08.558Z,17.80
2017-09-02T17:02:36.987Z,17.80
2017-09-02T17:05:05.404Z,17.80
2017-09-02T17:07:33.864Z,17.80
2017-09-02T17:10:02.373Z,17.80
2017-09-02T17:12:30.827Z,17.60
2017-09-02T17:14:59.241Z,17.60
2017-09-02T17:17:28.052Z,17.60
2017-09-02T17:19:56.548Z,17.50
2017-09-02T17:22:24.996Z,17.40
2017-09-02T17:24:53.536Z,17.30
2017-09-02T17:27:22.024Z,17.20
2017-09-02T17:29:50.602Z,17.10
2017-09-02T17:32:19.005Z,17.00
2017-09-02T17:34:47.494Z,16.90
2017-09-02T17:37:16.014Z,16.90
2017-09-02T17:39:44.473Z,16.80
2017-09-02T17:42:12.936Z,16.70
2017-09-02T17:44:41.362Z,16.60
2017-09-02T17:47:10.382Z,16.60
2017-09-02T17:49:38.780Z,16.50
2017-09-02T17:52:07.238Z,16.30
2017-09-02T17:54:35.614Z,16.20
2017-09-02T17:57:04.058Z,16.10
2017-09-02T17:59:32.460Z,16.00
2017-09-02T18:02:00.869Z,16.10
2017-09-02T18:04:29.330Z,16.00
2017-09-02T18:06:59.225Z,15.90
2017-09-02T18:09:28.100Z,15.90
2017-09-02T18:11:56.508Z,15.90
2017-09-02T18:14:26.164Z,15.80
2017-09-02T18:16:54.825Z,15.70
2017-09-02T18:19:23.338Z,15.70
2017-09-02T18:21:51.751Z,15.70
2017-09-02T18:24:20.296Z,15.70
2017-09-02T18:26:48.875Z,15.60
2017-09-02T18:29:17.265Z,15.50
2017-09-02T18:31:45.697Z,15.40
2017-09-02T18:34:14.106Z,15.40
2017-09-02T18:36:42.524Z,15.30
2017-09-02T18:39:10.940Z,15.20
2017-09-02T18:41:39.327Z,15.20
2017-09-02T18:44:07.717Z,15.20
2017-09-02T18:46:36.110Z,15.10
2017-09-02T18:49:04.576Z,15.00
2017-09-02T18:51:32.953Z,14.90
2017-09-02T18:54:01.402Z,14.70
2017-09-02T18:56:29.817Z,14.50
2017-09-02T18:58:58.316Z,14.20
2017-09-02T19:01:26.933Z,14.00
2017-09-02T19:03:55.463Z,13.90
2017-09-02T19:06:24.051Z,13.90
2017-09-02T19:08:52.456Z,13.90
2017-09-02T19:11:21.318Z,13.80
2017-09-02T19:13:49.895Z,13.80
2017-09-02T19:16:18.265Z,13.70
2017-09-02T19:18:46.652Z,13.70
2017-09-02T19:21:15.069Z,13.70
2017-09-02T19:23:44.270Z,13.60
2017-09-02T19:26:13.621Z,13.60
2017-09-02T19:28:42.344Z,13.50
2017-09-02T19:31:10.796Z,13.30
2017-09-02T19:33:39.937Z,13.20
2017-09-02T19:36:08.335Z,13.20
2017-09-02T19:38:37.393Z,13.20
2017-09-02T19:41:05.806Z,13.20
2017-09-02T19:43:34.301Z,13.10
2017-09-02T19:46:02.748Z,13.10
2017-09-02T19:48:31.212Z,13.10
2017-09-02T19:50:59.585Z,13.00
2017-09-02T19:53:27.977Z,12.90
2017-09-02T19:55:56.362Z,13.00
2017-09-02T19:58:25.320Z,13.00
2017-09-02T20:00:54.491Z,13.00
2017-09-02T20:03:22.888Z,13.00
2017-09-02T20:05:51.614Z,13.00
2017-09-02T20:08:20.045Z,12.90
2017-09-02T20:10:48.519Z,12.90
2017-09-02T20:13:16.936Z,12.80
2017-09-02T20:15:45.336Z,12.80
2017-09-02T20:18:13.759Z,12.80
2017-09-02T20:20:42.138Z,12.70
2017-09-02T20:23:10.668Z,12.60
2017-09-02T20:25:39.188Z,12.70
2017-09-02T20:28:07.649Z,12.60
2017-09-02T20:30:36.102Z,12.60
2017-09-02T20:33:04.539Z,12.60
2017-09-02T20:35:32.986Z,12.40
2017-09-02T20:38:01.385Z,12.30
2017-09-02T20:40:30.436Z,12.40
2017-09-02T20:42:58.820Z,12.40
2017-09-02T20:45:27.247Z,12.30
2017-09-02T20:47:55.726Z,12.40
2017-09-02T20:50:24.109Z,12.40
2017-09-02T20:52:52.512Z,12.40
2017-09-02T20:55:20.916Z,12.40
2017-09-02T20:57:49.301Z,12.50
2017-09-02T21:00:17.734Z,12.40
2017-09-02T21:02:46.163Z,12.30
2017-09-02T21:05:14.571Z,12.20
2017-09-02T21:07:42.975Z,12.10
2017-09-02T21:10:11.386Z,12.10
2017-09-02T21:12:39.899Z,12.10
2017-09-02T21:15:08.289Z,12.10
2017-09-02T21:17:36.679Z,12.20
2017-09-02T21:20:05.160Z,12.30
2017-09-02T21:22:33.614Z,12.20
2017-09-02T21:25:02.034Z,12.20
2017-09-02T21:27:30.498Z,12.00
2017-09-02T21:29:58.894Z,11.90
2017-09-02T21:32:27.315Z,12.00
2017-09-02T21:34:55.760Z,12.00
2017-09-02T21:37:24.203Z,11.90
2017-09-02T21:39:52.660Z,11.90
2017-09-02T21:42:21.096Z,11.90
2017-09-02T21:44:49.542Z,11.80
2017-09-02T21:47:17.953Z,11.80
2017-09-02T21:49:46.324Z,11.90
2017-09-02T21:52:14.733Z,11.80
2017-09-02T21:54:43.195Z,11.70
2017-09-02T21:57:11.579Z,11.70
2017-09-02T21:59:39.998Z,11.70
2017-09-02T22:02:08.446Z,11.70
2017-09-02T22:04:36.909Z,11.70
2017-09-02T22:07:05.301Z,11.80
2017-09-02T22:09:33.712Z,11.90
2017-09-02T22:12:02.100Z,11.70
2017-09-02T22:14:30.528Z,11.60
2017-09-02T22:16:58.950Z,11.60
2017-09-02T22:19:27.454Z,11.60
2017-09-02T22:21:55.849Z,11.60
2017-09-02T22:24:24.276Z,11.70
2017-09-02T22:26:52.796Z,11.70
2017-09-02T22:29:21.227Z,11.70
2017-09-02T22:31:49.733Z,11.70
2017-09-02T22:34:18.155Z,11.50
2017-09-02T22:36:46.571Z,11.50
2017-09-02T22:39:15.048Z,11.60
2017-09-02T22:41:43.513Z,11.40
2017-09-02T22:44:11.898Z,11.20
2017-09-02T22:46:40.277Z,11.20
2017-09-02T22:49:08.708Z,11.30
2017-09-02T22:51:37.179Z,11.30
2017-09-02T22:54:05.719Z,11.20
2017-09-02T22:56:34.334Z,11.00
2017-09-02T22:59:02.734Z,11.00
2017-09-02T23:01:31.119Z,11.10
2017-09-02T23:03:59.564Z,11.10
2017-09-02T23:06:27.992Z,11.10
2017-09-02T23:08:57.578Z,11.10
2017-09-02T23:11:25.958Z,11.20
2017-09-02T23:13:54.324Z,11.20
2017-09-02T23:16:22.735Z,11.10
2017-09-02T23:18:51.154Z,11.20
2017-09-02T23:21:19.615Z,11.20
2017-09-02T23:23:48.059Z,11.10
2017-09-02T23:26:16.541Z,10.90
2017-09-02T23:28:44.916Z,10.90
2017-09-02T23:31:13.389Z,10.90
2017-09-02T23:33:41.832Z,10.80
2017-09-02T23:36:10.288Z,10.70
2017-09-02T23:38:38.703Z,10.60
2017-09-02T23:41:07.107Z,10.70
2017-09-02T23:43:35.578Z,10.70
2017-09-02T23:46:04.014Z,10.70
2017-09-02T23:48:32.511Z,10.80
2017-09-02T23:51:00.974Z,10.80
2017-09-02T23:53:29.390Z,10.80
2017-09-02T23:55:57.827Z,10.80
2017-09-02T23:58:26.221Z,10.70
